createdAt,value
2019-03-26T00:02:05.997Z,6.29
2019-03-26T00:04:41.151Z,6.31
2019-03-26T00:07:11.905Z,6.28
2019-03-26T00:09:42.761Z,6.28
2019-03-26T00:12:13.615Z,6.30
2019-03-26T00:14:44.249Z,6.27
2019-03-26T00:17:19.096Z,6.27
2019-03-26T00:19:51.279Z,6.28
2019-03-26T00:22:22.156Z,6.25
2019-03-26T00:24:56.785Z,6.26
2019-03-26T00:27:27.651Z,6.27
2019-03-26T00:29:58.288Z,6.27
2019-03-26T00:32:29.056Z,6.22
2019-03-26T00:34:59.707Z,6.22
2019-03-26T00:37:30.562Z,6.21
2019-03-26T00:40:01.423Z,6.23
2019-03-26T00:42:32.175Z,6.20
2019-03-26T00:45:02.836Z,6.20
2019-03-26T00:47:33.682Z,6.17
2019-03-26T00:50:05.428Z,6.22
2019-03-26T00:52:36.212Z,6.19
2019-03-26T00:55:21.601Z,6.17
2019-03-26T00:57:41.505Z,6.16
2019-03-26T01:00:12.259Z,6.13
2019-03-26T01:02:42.913Z,6.19
2019-03-26T01:05:13.663Z,6.17
2019-03-26T01:07:44.417Z,6.11
2019-03-26T01:10:18.244Z,6.13
2019-03-26T01:12:48.892Z,6.07
2019-03-26T01:15:19.747Z,6.05
2019-03-26T01:17:50.501Z,6.06
2019-03-26T01:20:21.258Z,6.03
2019-03-26T01:22:51.991Z,6.00
2019-03-26T01:25:22.904Z,6.00
2019-03-26T01:27:53.720Z,6.05
2019-03-26T01:30:24.371Z,6.05
2019-03-26T01:32:55.229Z,6.08
2019-03-26T01:35:27.520Z,6.10
2019-03-26T01:37:59.684Z,6.07
2019-03-26T01:40:30.252Z,6.09
2019-03-26T01:43:00.988Z,6.05
2019-03-26T01:45:31.863Z,6.06
2019-03-26T01:48:02.613Z,6.05
2019-03-26T01:50:33.251Z,6.08
2019-03-26T01:53:04.122Z,6.11
2019-03-26T01:55:34.964Z,6.10
2019-03-26T01:58:06.533Z,6.09
2019-03-26T02:00:37.307Z,6.12
2019-03-26T02:03:07.956Z,6.07
2019-03-26T02:05:38.693Z,6.07
2019-03-26T02:08:09.570Z,6.02
2019-03-26T02:10:40.323Z,6.08
2019-03-26T02:13:10.957Z,6.06
2019-03-26T02:15:41.706Z,6.11
2019-03-26T02:18:12.584Z,6.11
2019-03-26T02:20:43.218Z,6.08
2019-03-26T02:23:13.298Z,6.08
2019-03-26T02:25:43.822Z,6.07
2019-03-26T02:28:14.478Z,6.09
2019-03-26T02:30:45.331Z,6.13
2019-03-26T02:33:16.086Z,6.12
2019-03-26T02:35:46.836Z,6.14
2019-03-26T02:38:17.594Z,6.13
2019-03-26T02:40:48.449Z,6.12
2019-03-26T02:43:19.080Z,6.10
2019-03-26T02:45:49.957Z,6.12
2019-03-26T02:48:20.692Z,6.09
2019-03-26T02:50:51.679Z,6.12
2019-03-26T02:53:21.525Z,6.12
2019-03-26T02:55:51.929Z,6.16
2019-03-26T02:58:22.701Z,6.12
2019-03-26T03:00:53.336Z,6.11
2019-03-26T03:03:23.418Z,6.09
2019-03-26T03:05:53.946Z,6.11
2019-03-26T03:08:24.683Z,6.11
2019-03-26T03:10:55.533Z,6.10
2019-03-26T03:13:26.304Z,6.12
2019-03-26T03:15:57.080Z,6.12
2019-03-26T03:18:27.711Z,6.13
2019-03-26T03:20:58.447Z,6.11
2019-03-26T03:23:29.222Z,6.06
2019-03-26T03:25:59.851Z,6.11
2019-03-26T03:28:30.037Z,6.08
2019-03-26T03:31:00.560Z,6.10
2019-03-26T03:33:31.018Z,6.09
2019-03-26T03:36:00.966Z,6.06
2019-03-26T03:38:31.476Z,6.06
2019-03-26T03:41:02.246Z,6.05
2019-03-26T03:43:33.098Z,6.07
2019-03-26T03:46:04.162Z,6.06
2019-03-26T03:48:34.489Z,6.04
2019-03-26T03:51:04.571Z,6.05
2019-03-26T03:53:34.973Z,6.05
2019-03-26T03:56:05.053Z,6.06
2019-03-26T03:58:35.783Z,6.09
2019-03-26T04:01:06.548Z,6.07
2019-03-26T04:03:37.176Z,6.05
2019-03-26T04:06:09.926Z,6.11
2019-03-26T04:08:40.417Z,6.14
2019-03-26T04:11:11.074Z,6.13
2019-03-26T04:13:41.147Z,6.11
2019-03-26T04:16:11.681Z,6.17
2019-03-26T04:18:42.204Z,6.14
2019-03-26T04:21:13.086Z,6.18
2019-03-26T04:23:43.935Z,6.21
2019-03-26T04:26:14.691Z,6.15
2019-03-26T04:28:45.448Z,6.22
2019-03-26T04:31:16.314Z,6.23
2019-03-26T04:33:46.943Z,6.28
2019-03-26T04:36:25.679Z,6.27
2019-03-26T04:38:49.993Z,6.24
2019-03-26T04:41:20.731Z,6.31
2019-03-26T04:43:51.492Z,6.34
2019-03-26T04:46:22.132Z,6.31
2019-03-26T04:48:53.010Z,6.42
2019-03-26T04:51:23.762Z,6.45
2019-03-26T04:53:54.398Z,6.46
2019-03-26T04:56:25.270Z,6.41
2019-03-26T04:58:56.434Z,6.44
2019-03-26T05:01:26.862Z,6.46
2019-03-26T05:03:57.531Z,6.49
2019-03-26T05:06:38.039Z,6.48
2019-03-26T05:09:00.981Z,6.48
2019-03-26T05:11:31.632Z,6.44
2019-03-26T05:14:02.494Z,6.44
2019-03-26T05:16:33.352Z,6.50
2019-03-26T05:19:03.980Z,6.55
2019-03-26T05:21:34.633Z,6.58
2019-03-26T05:24:04.710Z,6.61
2019-03-26T05:26:35.340Z,6.64
2019-03-26T05:29:05.195Z,6.59
2019-03-26T05:31:35.721Z,6.64
2019-03-26T05:34:06.474Z,6.74
2019-03-26T05:36:50.401Z,6.78
2019-03-26T05:39:09.317Z,6.75
2019-03-26T05:41:40.048Z,6.75
2019-03-26T05:44:10.924Z,6.74
2019-03-26T05:46:41.557Z,6.72
2019-03-26T05:49:11.801Z,6.66
2019-03-26T05:51:42.044Z,6.65
2019-03-26T05:54:12.815Z,6.72
2019-03-26T05:56:43.465Z,6.73
2019-03-26T05:59:15.344Z,6.84
2019-03-26T06:01:46.301Z,6.95
2019-03-26T06:04:17.054Z,7.03
2019-03-26T06:06:47.712Z,7.12
2019-03-26T06:09:18.769Z,7.29
2019-03-26T06:11:49.522Z,7.45
2019-03-26T06:14:20.157Z,7.55
2019-03-26T06:16:50.236Z,7.60
2019-03-26T06:19:20.745Z,7.62
2019-03-26T06:21:50.822Z,7.66
2019-03-26T06:24:21.336Z,7.68
2019-03-26T06:26:51.982Z,7.89
2019-03-26T06:29:22.734Z,8.11
2019-03-26T06:31:53.613Z,8.19
2019-03-26T06:34:24.246Z,8.30
2019-03-26T06:36:55.014Z,8.41
2019-03-26T06:39:25.678Z,8.47
2019-03-26T06:41:56.407Z,8.64
2019-03-26T06:44:27.175Z,8.67
2019-03-26T06:46:57.931Z,8.63
2019-03-26T06:49:28.584Z,8.83
2019-03-26T06:51:59.214Z,8.56
2019-03-26T06:54:29.972Z,8.28
2019-03-26T06:57:00.740Z,8.27
2019-03-26T06:59:32.502Z,8.38
2019-03-26T07:02:03.169Z,8.44
2019-03-26T07:04:34.028Z,8.50
2019-03-26T07:07:04.864Z,8.32
2019-03-26T07:09:35.518Z,8.45
2019-03-26T07:12:07.814Z,8.61
2019-03-26T07:14:37.348Z,8.86
2019-03-26T07:17:08.100Z,8.83
2019-03-26T07:19:38.755Z,8.75
2019-03-26T07:22:11.144Z,8.66
2019-03-26T07:24:41.927Z,8.53
2019-03-26T07:27:12.652Z,8.45
2019-03-26T07:29:43.304Z,8.50
2019-03-26T07:32:15.494Z,8.64
2019-03-26T07:34:46.157Z,8.91
2019-03-26T07:37:17.304Z,9.14
2019-03-26T07:39:48.166Z,9.24
2019-03-26T07:42:19.018Z,9.45
2019-03-26T07:44:49.649Z,9.50
2019-03-26T07:47:19.728Z,9.42
2019-03-26T07:49:50.239Z,9.62
2019-03-26T07:52:20.916Z,9.45
2019-03-26T07:54:52.462Z,9.60
2019-03-26T07:57:24.006Z,9.75
2019-03-26T07:59:55.415Z,9.80
2019-03-26T08:02:26.289Z,9.53
2019-03-26T08:04:57.029Z,9.36
2019-03-26T08:07:27.805Z,9.16
2019-03-26T08:09:58.430Z,9.34
2019-03-26T08:12:29.168Z,9.61
2019-03-26T08:15:00.420Z,9.78
2019-03-26T08:17:31.206Z,9.82
2019-03-26T08:20:01.944Z,9.72
2019-03-26T08:22:32.596Z,9.65
2019-03-26T08:25:04.184Z,9.74
2019-03-26T08:27:34.628Z,9.55
2019-03-26T08:30:07.126Z,9.56
2019-03-26T08:32:37.573Z,9.51
2019-03-26T08:35:08.325Z,9.34
2019-03-26T08:37:38.966Z,9.22
2019-03-26T08:40:09.041Z,9.16
2019-03-26T08:42:39.562Z,9.07
2019-03-26T08:45:10.216Z,8.92
2019-03-26T08:47:41.071Z,8.89
2019-03-26T08:50:12.029Z,8.80
2019-03-26T08:52:42.475Z,8.66
2019-03-26T08:55:13.316Z,8.64
2019-03-26T08:57:43.885Z,8.61
2019-03-26T09:00:14.744Z,8.70
2019-03-26T09:02:45.492Z,8.72
2019-03-26T09:05:16.141Z,8.74
2019-03-26T09:07:46.879Z,8.89
2019-03-26T09:10:17.530Z,9.13
2019-03-26T09:12:48.302Z,9.30
2019-03-26T09:15:18.937Z,9.52
2019-03-26T09:17:49.605Z,9.75
2019-03-26T09:20:20.463Z,9.55
2019-03-26T09:22:51.095Z,9.70
2019-03-26T09:25:21.744Z,9.98
2019-03-26T09:27:52.596Z,9.99
2019-03-26T09:30:22.579Z,10.27
2019-03-26T09:32:52.986Z,10.12
2019-03-26T09:35:23.756Z,9.97
2019-03-26T09:37:54.645Z,9.88
2019-03-26T09:40:25.371Z,9.74
2019-03-26T09:42:56.002Z,9.85
2019-03-26T09:45:26.755Z,9.98
2019-03-26T09:47:57.526Z,9.92
2019-03-26T09:50:33.573Z,9.93
2019-03-26T09:53:04.439Z,9.98
2019-03-26T09:55:34.310Z,10.23
2019-03-26T09:58:04.841Z,10.38
2019-03-26T10:00:36.152Z,10.46
2019-03-26T10:03:07.171Z,10.50
2019-03-26T10:05:37.797Z,10.51
2019-03-26T10:08:07.875Z,10.57
2019-03-26T10:10:38.386Z,11.00
2019-03-26T10:13:09.157Z,11.44
2019-03-26T10:15:39.893Z,11.41
2019-03-26T10:18:10.770Z,11.61
2019-03-26T10:20:41.521Z,11.45
2019-03-26T10:23:12.172Z,11.99
2019-03-26T10:25:42.915Z,11.98
2019-03-26T10:28:13.559Z,11.94
2019-03-26T10:30:44.330Z,11.84
2019-03-26T10:33:14.993Z,11.50
2019-03-26T10:35:45.721Z,11.20
2019-03-26T10:38:16.371Z,10.95
2019-03-26T10:40:47.027Z,10.81
2019-03-26T10:43:17.693Z,10.47
2019-03-26T10:45:48.427Z,10.38
2019-03-26T10:48:19.184Z,10.54
2019-03-26T10:50:49.837Z,10.57
2019-03-26T10:53:20.486Z,10.86
2019-03-26T10:55:50.563Z,11.09
2019-03-26T10:58:21.074Z,11.12
2019-03-26T11:00:52.867Z,10.86
2019-03-26T11:03:23.316Z,11.04
2019-03-26T11:05:53.970Z,11.13
2019-03-26T11:08:24.822Z,11.29
2019-03-26T11:10:55.456Z,11.36
2019-03-26T11:13:26.108Z,11.53
2019-03-26T11:15:56.074Z,11.31
2019-03-26T11:18:26.591Z,11.21
2019-03-26T11:21:02.793Z,11.21
2019-03-26T11:23:29.445Z,11.21
2019-03-26T11:26:00.303Z,10.96
2019-03-26T11:28:31.059Z,10.77
2019-03-26T11:31:01.693Z,10.85
2019-03-26T11:33:32.358Z,11.01
2019-03-26T11:36:03.096Z,11.29
2019-03-26T11:38:33.969Z,11.39
2019-03-26T11:41:04.723Z,11.44
2019-03-26T11:43:35.254Z,11.51
2019-03-26T11:46:06.133Z,11.54
2019-03-26T11:48:36.864Z,11.53
2019-03-26T11:51:07.643Z,11.60
2019-03-26T11:53:38.279Z,11.75
2019-03-26T11:56:09.150Z,12.02
2019-03-26T11:58:39.899Z,11.98
2019-03-26T12:01:10.940Z,11.84
2019-03-26T12:03:41.816Z,11.72
2019-03-26T12:06:12.570Z,11.57
2019-03-26T12:08:43.326Z,11.39
2019-03-26T12:11:14.189Z,11.60
2019-03-26T12:13:45.036Z,11.71
2019-03-26T12:16:15.790Z,11.82
2019-03-26T12:18:46.440Z,11.71
2019-03-26T12:21:17.279Z,11.60
2019-03-26T12:23:48.034Z,11.62
2019-03-26T12:26:18.685Z,11.67
2019-03-26T12:28:49.337Z,11.49
2019-03-26T12:31:20.218Z,11.58
2019-03-26T12:33:50.965Z,11.71
2019-03-26T12:36:21.720Z,11.60
2019-03-26T12:38:52.351Z,11.65
2019-03-26T12:41:23.107Z,11.73
2019-03-26T12:43:53.879Z,11.82
2019-03-26T12:46:24.634Z,11.59
2019-03-26T12:48:55.284Z,11.83
2019-03-26T12:51:26.017Z,11.67
2019-03-26T12:53:56.773Z,11.83
2019-03-26T12:56:27.544Z,11.91
2019-03-26T12:58:58.197Z,11.92
2019-03-26T13:01:29.363Z,12.34
2019-03-26T13:04:11.900Z,12.16
2019-03-26T13:06:32.093Z,12.68
2019-03-26T13:09:02.949Z,12.70
2019-03-26T13:11:33.382Z,12.55
2019-03-26T13:14:04.250Z,12.52
2019-03-26T13:16:35.005Z,12.61
2019-03-26T13:19:05.659Z,12.72
2019-03-26T13:21:37.595Z,12.31
2019-03-26T13:24:11.297Z,12.42
2019-03-26T13:26:40.476Z,12.13
2019-03-26T13:29:11.230Z,12.03
2019-03-26T13:31:41.982Z,11.94
2019-03-26T13:34:12.719Z,11.79
2019-03-26T13:36:43.592Z,11.83
2019-03-26T13:39:14.226Z,11.75
2019-03-26T13:41:44.882Z,11.65
2019-03-26T13:44:15.652Z,11.69
2019-03-26T13:46:46.387Z,11.72
2019-03-26T13:49:16.464Z,11.81
2019-03-26T13:51:47.985Z,11.86
2019-03-26T13:54:18.647Z,11.85
2019-03-26T13:56:49.522Z,11.86
2019-03-26T13:59:20.377Z,12.11
2019-03-26T14:01:52.262Z,12.30
2019-03-26T14:04:23.010Z,12.26
2019-03-26T14:06:53.545Z,12.21
2019-03-26T14:09:24.306Z,12.39
2019-03-26T14:11:57.582Z,12.31
2019-03-26T14:14:27.163Z,11.93
2019-03-26T14:16:57.792Z,11.95
2019-03-26T14:19:28.659Z,11.79
2019-03-26T14:21:59.414Z,11.74
2019-03-26T14:24:30.066Z,11.69
2019-03-26T14:27:00.921Z,11.62
2019-03-26T14:29:31.676Z,11.69
2019-03-26T14:32:02.431Z,11.67
2019-03-26T14:34:33.081Z,11.60
2019-03-26T14:37:03.815Z,11.62
2019-03-26T14:39:34.589Z,11.66
2019-03-26T14:42:05.342Z,11.79
2019-03-26T14:44:35.992Z,11.49
2019-03-26T14:47:06.730Z,11.39
2019-03-26T14:49:37.382Z,11.39
2019-03-26T14:52:08.032Z,11.21
2019-03-26T14:54:38.703Z,11.21
2019-03-26T14:57:09.558Z,11.20
2019-03-26T14:59:40.421Z,11.16
2019-03-26T15:02:11.168Z,11.13
2019-03-26T15:04:41.701Z,11.14
2019-03-26T15:07:12.574Z,11.09
2019-03-26T15:09:43.325Z,10.95
2019-03-26T15:12:13.961Z,10.94
2019-03-26T15:14:44.616Z,10.97
2019-03-26T15:17:15.485Z,10.89
2019-03-26T15:19:46.240Z,10.91
2019-03-26T15:22:16.998Z,10.86
2019-03-26T15:24:47.527Z,10.85
2019-03-26T15:27:18.399Z,10.81
2019-03-26T15:29:49.255Z,10.83
2019-03-26T15:32:19.991Z,10.86
2019-03-26T15:34:50.868Z,10.90
2019-03-26T15:37:22.625Z,10.85
2019-03-26T15:39:55.548Z,10.86
2019-03-26T15:42:26.199Z,10.81
2019-03-26T15:44:57.052Z,10.76
2019-03-26T15:47:27.804Z,10.70
2019-03-26T15:49:58.560Z,10.62
2019-03-26T15:52:29.417Z,10.65
2019-03-26T15:55:00.459Z,10.57
2019-03-26T15:57:31.536Z,10.54
2019-03-26T16:00:02.120Z,10.51
2019-03-26T16:02:40.293Z,10.47
2019-03-26T16:05:10.939Z,10.41
2019-03-26T16:07:41.712Z,10.27
2019-03-26T16:10:12.362Z,10.22
2019-03-26T16:12:43.205Z,10.18
2019-03-26T16:15:13.974Z,10.22
2019-03-26T16:17:44.725Z,9.92
2019-03-26T16:20:15.585Z,9.58
2019-03-26T16:22:46.439Z,9.36
2019-03-26T16:25:17.196Z,9.19
2019-03-26T16:27:47.826Z,9.11
2019-03-26T16:30:17.692Z,9.04
2019-03-26T16:32:48.105Z,8.97
2019-03-26T16:35:18.074Z,8.93
2019-03-26T16:37:48.592Z,8.84
2019-03-26T16:40:19.349Z,8.76
2019-03-26T16:42:50.120Z,8.74
2019-03-26T16:45:20.976Z,8.70
2019-03-26T16:47:51.610Z,8.67
2019-03-26T16:50:21.691Z,8.67
2019-03-26T16:52:52.109Z,8.60
2019-03-26T16:55:22.868Z,8.50
2019-03-26T16:57:53.514Z,8.47
2019-03-26T17:00:32.432Z,8.40
2019-03-26T17:03:04.026Z,8.32
2019-03-26T17:05:34.657Z,8.23
2019-03-26T17:08:05.431Z,8.18
2019-03-26T17:10:36.267Z,8.05
2019-03-26T17:13:07.157Z,8.07
2019-03-26T17:15:37.896Z,7.99
2019-03-26T17:18:09.162Z,7.96
2019-03-26T17:20:40.024Z,7.92
2019-03-26T17:23:10.753Z,7.84
2019-03-26T17:25:41.422Z,7.85
2019-03-26T17:28:12.260Z,7.80
2019-03-26T17:30:43.031Z,7.76
2019-03-26T17:33:13.786Z,7.74
2019-03-26T17:35:44.436Z,7.68
2019-03-26T17:38:15.295Z,7.64
2019-03-26T17:40:46.148Z,7.63
2019-03-26T17:43:16.906Z,7.68
2019-03-26T17:45:50.113Z,7.65
2019-03-26T17:48:20.865Z,7.63
2019-03-26T17:50:51.726Z,7.63
2019-03-26T17:53:22.479Z,7.59
2019-03-26T17:55:53.230Z,7.59
2019-03-26T17:58:23.866Z,7.58
2019-03-26T18:00:56.391Z,7.63
2019-03-26T18:03:28.447Z,7.57
2019-03-26T18:06:04.739Z,7.57
2019-03-26T18:08:35.296Z,7.59
2019-03-26T18:11:06.244Z,7.57
2019-03-26T18:13:39.247Z,7.56
2019-03-26T18:16:09.797Z,7.54
2019-03-26T18:18:41.188Z,7.50
2019-03-26T18:21:11.804Z,7.52
2019-03-26T18:23:43.044Z,7.47
2019-03-26T18:26:13.510Z,7.47
2019-03-26T18:28:44.181Z,7.44
2019-03-26T18:31:24.143Z,7.46
2019-03-26T18:34:01.418Z,7.47
2019-03-26T18:36:37.794Z,7.46
2019-03-26T18:39:09.073Z,7.45
2019-03-26T18:41:39.823Z,7.44
2019-03-26T18:44:10.695Z,7.41
2019-03-26T18:46:41.449Z,7.41
2019-03-26T18:49:12.311Z,7.37
2019-03-26T18:51:43.372Z,7.35
2019-03-26T18:54:14.225Z,7.38
2019-03-26T18:56:44.872Z,7.36
2019-03-26T18:59:15.712Z,7.37
2019-03-26T19:01:46.482Z,7.40
2019-03-26T19:04:18.368Z,7.36
2019-03-26T19:06:49.125Z,7.29
2019-03-26T19:09:19.749Z,7.29
2019-03-26T19:11:58.310Z,7.28
2019-03-26T19:14:29.472Z,7.33
2019-03-26T19:16:59.887Z,7.32
2019-03-26T19:19:30.663Z,7.28
2019-03-26T19:22:01.413Z,7.25
2019-03-26T19:24:32.372Z,7.21
2019-03-26T19:27:04.968Z,7.24
